< < Back
Terminal Aerodrome Forecast


Current Version              Previous Versions:   1  2  3  4  5  6  7  8  9  

Terminal Aerodrome Forecast

677
FTUS42 KGSP 311800 CCA
TAFAND
TAF COR
KAND 311841Z 3118/0118 04007KT P6SM FEW006 OVC050
      TEMPO 3119/3122 6SM -TSRA SCT006 OVC045CB
     FM312200 05006KT P6SM -SHRA OVC050
     FM010400 05009KT P6SM OVC018
     FM010800 04006KT 4SM -SHRA BR OVC009
     FM011400 07006KT P6SM -SHRA OVC019=



Latest METAR

490
SAUS70 KWBC 311900 RRB
MTRAND
METAR KAND 311856Z AUTO VRB05KT 10SM -RA OVC045 19/18 A3013 RMK AO2
SLP194 P0002 T01940183


USA.gov is the U.S. government's official web portal to all federal, state and local government web resources and services.